Time;durP1;ratioP1;P1;durP2;ratioP2;P2;SDS_P1;SDS_P2;PMS_P1;PMS_P2;Temp;Humidity;BMP_temperature;BMP_pressure;BME280_temperature;BME280_humidity;BME280_pressure;Samples;Min_cycle;Max_cycle;Signal;HPM_P1;HPM_P2
2024/03/21 00:00:37;;;;;;;20.30;11.30;;;;;;;5.22;82.74;99774.02;107508;1253;67672;-38
2024/03/21 00:03:04;;;;;;;18.10;10.00;;;;;;;5.22;82.42;99774.09;107489;1257;71734;-38
2024/03/21 00:05:32;;;;;;;20.60;10.40;;;;;;;5.24;82.32;99773.32;107606;1253;61205;-38
2024/03/21 00:07:59;;;;;;;17.80;11.30;;;;;;;5.21;82.43;99771.75;107576;1253;61233;-38
2024/03/21 00:10:27;;;;;;;22.40;11.00;;;;;;;5.17;82.35;99773.70;105332;1252;1003385;-38
2024/03/21 00:12:55;;;;;;;19.30;11.40;;;;;;;5.10;82.27;99773.52;107521;1259;67842;-38
2024/03/21 00:15:22;;;;;;;20.10;11.10;;;;;;;5.02;82.17;99769.14;107577;1253;72693;-38
2024/03/21 00:17:49;;;;;;;15.80;9.90;;;;;;;5.00;82.02;99768.52;107573;1253;61354;-38
2024/03/21 00:20:19;;;;;;;20.80;10.00;;;;;;;5.01;81.87;99774.22;107567;1253;61367;-38
2024/03/21 00:22:46;;;;;;;19.40;10.80;;;;;;;4.96;82.12;99771.30;107571;1253;72391;-38
2024/03/21 00:25:14;;;;;;;17.70;10.10;;;;;;;4.90;82.16;99766.30;107595;1253;66289;-38
2024/03/21 00:27:42;;;;;;;23.20;10.80;;;;;;;4.86;82.35;99768.67;107592;1253;72802;-38
2024/03/21 00:30:10;;;;;;;21.50;9.80;;;;;;;4.81;82.34;99769.55;107610;1254;61179;-38
2024/03/21 00:32:37;;;;;;;21.90;10.00;;;;;;;4.85;82.10;99769.46;107586;1253;59565;-38
2024/03/21 00:35:06;;;;;;;17.50;9.90;;;;;;;4.88;81.94;99768.69;107580;1253;74644;-38
2024/03/21 00:37:34;;;;;;;18.00;9.20;;;;;;;4.81;82.02;99766.08;106879;1253;1002963;-38
2024/03/21 00:40:02;;;;;;;18.00;9.30;;;;;;;4.71;82.21;99757.89;107577;1253;72750;-38
2024/03/21 00:42:29;;;;;;;12.60;9.70;;;;;;;4.71;82.24;99765.45;107532;1254;61208;-39
2024/03/21 00:44:57;;;;;;;17.60;9.10;;;;;;;4.65;82.45;99767.17;107537;1253;61148;-38
2024/03/21 00:47:24;;;;;;;18.10;8.70;;;;;;;4.68;82.36;99770.77;107519;1253;73452;-38
2024/03/21 00:49:52;;;;;;;19.30;9.20;;;;;;;4.71;82.32;99767.20;107552;1253;68055;-38
2024/03/21 00:52:19;;;;;;;14.40;8.70;;;;;;;4.69;82.58;99771.27;107617;1253;72354;-38
2024/03/21 00:54:47;;;;;;;16.60;9.40;;;;;;;4.68;82.72;99772.33;107557;1254;61356;-38
2024/03/21 00:57:14;;;;;;;21.60;9.30;;;;;;;4.64;82.64;99768.57;107573;1253;61084;-39
2024/03/21 00:59:45;;;;;;;21.20;9.40;;;;;;;4.59;82.61;99768.11;107625;1256;73415;-37
2024/03/21 01:02:15;;;;;;;19.20;8.90;;;;;;;4.62;82.25;99763.02;107599;1253;66304;-38
2024/03/21 01:04:44;;;;;;;19.60;9.30;;;;;;;4.64;82.14;99759.44;107568;1253;71389;-38
2024/03/21 01:07:13;;;;;;;18.70;9.00;;;;;;;4.55;82.16;99767.10;107598;1254;61317;-38
2024/03/21 01:09:40;;;;;;;19.20;8.90;;;;;;;4.45;82.47;99762.58;107573;1253;60371;-38
2024/03/21 01:12:08;;;;;;;18.10;9.00;;;;;;;4.40;82.66;99763.73;107556;1253;74703;-38
2024/03/21 01:14:36;;;;;;;21.70;9.10;;;;;;;4.35;82.84;99762.63;107600;1253;66614;-38
2024/03/21 01:17:04;;;;;;;13.70;8.20;;;;;;;4.39;82.81;99767.19;107577;1253;72758;-38
2024/03/21 01:19:31;;;;;;;20.40;9.10;;;;;;;4.41;82.50;99761.06;107523;1259;61225;-39
2024/03/21 01:21:58;;;;;;;18.50;8.80;;;;;;;4.39;82.88;99761.35;107547;1253;61227;-38
2024/03/21 01:24:26;;;;;;;14.40;8.60;;;;;;;4.35;83.09;99765.72;107648;1254;74626;-38
2024/03/21 01:26:53;;;;;;;16.40;8.50;;;;;;;4.31;83.14;99764.65;107574;1254;68078;-38
2024/03/21 01:29:21;;;;;;;15.60;8.30;;;;;;;4.28;83.17;99763.34;107563;1255;72703;-38
2024/03/21 01:31:49;;;;;;;14.50;8.10;;;;;;;4.33;83.05;99761.38;107583;1257;61295;-39
2024/03/21 01:34:16;;;;;;;14.40;8.20;;;;;;;4.38;83.05;99768.83;107594;1254;61606;-38
2024/03/21 01:36:49;;;;;;;18.30;9.40;;;;;;;4.36;83.06;99768.89;107683;1256;74720;-38
2024/03/21 01:39:17;;;;;;;17.70;8.80;;;;;;;4.30;83.05;99766.73;107584;1257;67762;-38
2024/03/21 01:41:45;;;;;;;20.70;9.20;;;;;;;4.24;83.18;99765.54;107534;1254;72704;-37
2024/03/21 01:44:16;;;;;;;18.20;8.10;;;;;;;4.19;83.23;99767.65;107625;1253;61102;-38
2024/03/21 01:46:43;;;;;;;19.80;8.70;;;;;;;4.21;83.10;99772.17;107660;1254;61145;-38
2024/03/21 01:49:11;;;;;;;22.20;9.30;;;;;;;4.20;82.86;99770.43;107629;1254;74673;-37
2024/03/21 01:51:40;;;;;;;18.90;8.90;;;;;;;4.14;83.05;99768.21;107481;1254;66395;-37
2024/03/21 01:54:08;;;;;;;20.90;9.20;;;;;;;4.09;83.45;99768.06;107554;1254;72728;-37
2024/03/21 01:56:37;;;;;;;19.50;8.40;;;;;;;4.05;83.42;99769.30;107607;1254;61259;-38
2024/03/21 01:59:04;;;;;;;17.50;8.90;;;;;;;4.06;83.35;99766.74;107622;1255;61151;-38
2024/03/21 02:01:32;;;;;;;16.50;7.90;;;;;;;4.07;83.29;99770.78;107513;1252;74741;-38
2024/03/21 02:04:01;;;;;;;19.70;9.90;;;;;;;4.06;83.36;99768.16;107574;1254;67307;-38
2024/03/21 02:06:28;;;;;;;17.70;8.60;;;;;;;4.04;83.66;99767.17;107493;1259;71226;-37
2024/03/21 02:08:58;;;;;;;20.50;9.10;;;;;;;4.05;83.68;99767.81;107559;1254;61127;-38
2024/03/21 02:11:25;;;;;;;15.60;7.80;;;;;;;4.05;83.66;99761.79;107525;1254;59256;-38
2024/03/21 02:13:54;;;;;;;15.30;9.10;;;;;;;4.09;83.23;99759.48;107604;1255;73350;-38
2024/03/21 02:16:22;;;;;;;16.90;8.30;;;;;;;4.12;82.94;99761.38;107610;1257;66597;-38
2024/03/21 02:18:50;;;;;;;18.30;8.50;;;;;;;4.12;83.07;99759.36;107599;1254;73184;-37
2024/03/21 02:24:04;;;;;;;16.60;9.20;;;;;;;4.05;83.10;99760.48;107676;1257;61119;-38
2024/03/21 02:26:31;;;;;;;14.30;8.50;;;;;;;4.02;83.16;99756.73;107625;1253;73403;-38
2024/03/21 02:28:58;;;;;;;20.10;8.40;;;;;;;4.06;82.88;99758.29;107578;1254;67591;-38
2024/03/21 02:31:26;;;;;;;19.50;8.80;;;;;;;4.09;82.68;99759.13;107581;1256;71410;-38
2024/03/21 02:33:53;;;;;;;19.60;8.90;;;;;;;4.05;82.88;99757.34;107614;1255;61153;-38
2024/03/21 02:36:20;;;;;;;20.00;8.80;;;;;;;4.00;83.13;99755.85;107637;1254;61742;-38
2024/03/21 02:38:48;;;;;;;12.70;8.40;;;;;;;3.96;83.28;99762.39;107587;1254;73328;-38
2024/03/21 02:41:15;;;;;;;16.80;8.20;;;;;;;3.93;83.38;99756.75;107566;1257;68251;-38
2024/03/21 02:43:43;;;;;;;14.60;8.60;;;;;;;3.98;83.31;99763.64;107520;1254;72759;-38
2024/03/21 02:46:10;;;;;;;15.60;8.30;;;;;;;4.01;83.15;99765.27;107569;1254;60740;-38
2024/03/21 02:48:37;;;;;;;20.10;9.30;;;;;;;4.02;83.49;99773.98;107724;1254;60534;-38
2024/03/21 02:51:05;;;;;;;20.20;9.20;;;;;;;4.03;83.58;99773.48;107592;1254;74733;-38
2024/03/21 02:53:32;;;;;;;19.40;9.30;;;;;;;4.02;83.49;99772.88;107684;1253;66659;-38
2024/03/21 02:55:59;;;;;;;19.80;8.70;;;;;;;3.98;83.60;99771.98;107597;1255;71459;-38
2024/03/21 02:58:27;;;;;;;16.30;8.00;;;;;;;4.00;83.40;99771.78;107577;1258;61218;-38
2024/03/21 03:00:55;;;;;;;18.10;8.80;;;;;;;4.07;83.15;99775.96;107589;1254;61298;-38
2024/03/21 03:03:22;;;;;;;20.30;8.90;;;;;;;4.08;83.15;99776.19;107619;1254;74641;-38
2024/03/21 03:05:49;;;;;;;18.50;8.60;;;;;;;4.04;83.12;99782.58;107603;1254;66602;-38
2024/03/21 03:08:17;;;;;;;16.80;8.70;;;;;;;4.00;83.11;99784.56;107565;1254;72690;-38
2024/03/21 03:10:44;;;;;;;18.80;8.80;;;;;;;3.98;83.30;99784.17;107595;1253;61121;-38
2024/03/21 03:13:11;;;;;;;19.20;8.20;;;;;;;4.02;83.17;99788.81;107600;1255;61308;-38
2024/03/21 03:15:39;;;;;;;21.30;8.40;;;;;;;4.07;82.83;99787.87;107611;1255;74691;-38
2024/03/21 03:18:06;;;;;;;15.80;8.30;;;;;;;4.07;82.89;99783.35;107610;1257;67623;-38
2024/03/21 03:20:34;;;;;;;17.40;8.20;;;;;;;4.05;83.00;99784.23;107615;1254;72677;-38
2024/03/21 03:23:01;;;;;;;15.20;9.10;;;;;;;4.02;82.94;99783.77;107535;1254;61265;-38
2024/03/21 03:25:29;;;;;;;16.90;8.90;;;;;;;3.99;83.00;99790.64;107543;1254;61253;-38
2024/03/21 03:27:56;;;;;;;18.70;8.50;;;;;;;3.99;82.69;99790.69;107526;1259;73594;-38
2024/03/21 03:30:23;;;;;;;15.30;7.80;;;;;;;4.04;82.57;99787.95;107588;1254;66287;-38
2024/03/21 03:35:33;;;;;;;17.30;8.20;;;;;;;4.04;82.69;99793.15;107560;1254;71680;-38
2024/03/21 03:35:47;;;;;;;13.90;8.30;;;;;;;4.00;82.74;99793.19;107478;1257;161093;-38
2024/03/21 03:39:59;;;;;;;13.50;7.70;;;;;;;3.92;82.92;99789.89;104261;1291;600384;-37
2024/03/21 03:42:26;;;;;;;13.00;8.40;;;;;;;3.95;82.98;99792.77;106713;1267;60993;-38
2024/03/21 03:44:53;;;;;;;15.60;7.80;;;;;;;4.01;82.61;99796.23;106648;1267;59549;-38
2024/03/21 03:47:21;;;;;;;16.20;8.90;;;;;;;3.99;82.74;99798.73;106667;1267;73020;-38
2024/03/21 03:49:48;;;;;;;16.70;9.30;;;;;;;4.01;83.03;99802.52;106754;1267;66384;-37
2024/03/21 03:52:16;;;;;;;17.80;9.30;;;;;;;4.02;83.03;99807.40;106679;1267;72694;-38
2024/03/21 03:54:43;;;;;;;21.30;8.60;;;;;;;4.00;82.88;99806.61;106677;1268;178617;-38
2024/03/21 03:57:11;;;;;;;15.00;8.30;;;;;;;4.03;82.69;99808.90;106821;1263;59262;-38
2024/03/21 03:59:38;;;;;;;21.60;8.90;;;;;;;4.10;82.63;99812.92;106843;1264;73135;-38
2024/03/21 04:02:05;;;;;;;16.60;8.20;;;;;;;4.09;82.43;99813.35;106809;1264;67872;-38
2024/03/21 04:04:33;;;;;;;19.20;9.20;;;;;;;4.07;82.58;99815.91;106817;1269;72699;-38
2024/03/21 04:07:00;;;;;;;19.90;9.30;;;;;;;4.06;82.72;99818.48;106736;1269;60437;-38
2024/03/21 04:09:28;;;;;;;16.20;8.80;;;;;;;4.04;82.57;99819.27;106728;1269;60033;-38
2024/03/21 04:11:56;;;;;;;14.60;7.50;;;;;;;4.06;82.32;99821.54;106779;1264;72488;-39
2024/03/21 04:14:24;;;;;;;14.20;8.30;;;;;;;4.10;82.07;99820.54;106826;1264;67927;-39
2024/03/21 04:16:51;;;;;;;17.00;9.10;;;;;;;4.09;82.10;99821.15;106817;1264;71140;-38
2024/03/21 04:19:18;;;;;;;13.70;8.70;;;;;;;4.04;82.08;99821.20;106826;1264;60494;-39
2024/03/21 04:21:46;;;;;;;17.30;8.70;;;;;;;4.00;82.28;99820.83;106806;1263;60495;-38
2024/03/21 04:24:13;;;;;;;17.60;8.20;;;;;;;3.97;82.29;99818.91;106813;1264;73435;-38
2024/03/21 04:26:41;;;;;;;16.60;8.20;;;;;;;3.97;82.14;99822.83;106810;1266;66358;-39
2024/03/21 04:29:09;;;;;;;14.10;8.00;;;;;;;3.96;81.95;99825.64;106805;1263;72732;-38
2024/03/21 04:31:36;;;;;;;13.70;7.80;;;;;;;3.90;82.28;99825.27;106802;1269;60511;-38
2024/03/21 04:34:03;;;;;;;16.50;8.70;;;;;;;3.84;82.39;99826.11;106800;1264;60430;-37
2024/03/21 04:36:31;;;;;;;16.80;8.10;;;;;;;3.80;82.68;99831.52;106795;1264;73960;-37
2024/03/21 04:38:58;;;;;;;17.90;8.10;;;;;;;3.79;82.71;99831.55;106802;1264;67587;-38
2024/03/21 04:41:25;;;;;;;14.70;9.20;;;;;;;3.79;82.62;99836.43;106794;1264;72737;-38
2024/03/21 04:43:53;;;;;;;15.90;8.20;;;;;;;3.73;82.71;99839.62;106799;1268;60305;-38
2024/03/21 04:46:20;;;;;;;17.80;8.80;;;;;;;3.67;83.14;99843.50;106799;1264;60266;-38
2024/03/21 04:48:48;;;;;;;21.40;7.50;;;;;;;3.61;83.47;99842.19;106777;1263;73830;-38
2024/03/21 04:51:15;;;;;;;15.50;7.80;;;;;;;3.62;83.59;99841.09;106786;1269;67954;-38
2024/03/21 04:53:42;;;;;;;14.90;7.40;;;;;;;3.66;83.52;99841.38;106799;1268;72714;-38
2024/03/21 04:56:10;;;;;;;15.70;8.30;;;;;;;3.68;83.90;99847.08;106728;1267;60447;-38
2024/03/21 04:58:37;;;;;;;13.10;8.60;;;;;;;3.69;84.06;99848.77;106730;1268;60383;-38
2024/03/21 05:01:07;;;;;;;15.20;8.50;;;;;;;3.70;84.16;99850.85;106749;1264;73830;-38
2024/03/21 05:03:36;;;;;;;15.10;7.90;;;;;;;3.74;84.09;99850.66;106763;1269;66010;-38
2024/03/21 05:06:04;;;;;;;16.10;7.90;;;;;;;3.80;83.97;99848.57;106803;1263;71682;-38
2024/03/21 05:08:31;;;;;;;19.70;9.20;;;;;;;3.85;83.99;99852.27;106737;1267;60427;-38
2024/03/21 05:10:59;;;;;;;23.30;11.10;;;;;;;3.86;84.27;99852.10;106793;1264;60345;-38
2024/03/21 05:13:26;;;;;;;21.40;9.50;;;;;;;3.85;84.21;99853.13;106790;1268;73853;-38
2024/03/21 05:15:53;;;;;;;14.70;8.30;;;;;;;3.87;84.39;99852.45;106813;1264;67712;-38
2024/03/21 05:18:21;;;;;;;14.40;7.60;;;;;;;3.93;84.20;99849.72;106819;1267;71456;-38
2024/03/21 05:20:48;;;;;;;16.10;8.10;;;;;;;4.03;84.34;99852.89;106821;1264;60405;-38
2024/03/21 05:23:16;;;;;;;15.40;7.90;;;;;;;4.05;84.25;99853.23;106832;1264;60389;-38
2024/03/21 05:25:43;;;;;;;18.60;9.50;;;;;;;4.05;84.31;99857.99;106812;1264;72611;-38
2024/03/21 05:28:11;;;;;;;14.40;8.40;;;;;;;4.07;84.36;99859.45;106807;1263;67958;-38
2024/03/21 05:30:38;;;;;;;16.00;8.60;;;;;;;4.07;84.27;99861.31;106804;1266;72713;-38
2024/03/21 05:33:08;;;;;;;13.40;7.50;;;;;;;4.13;84.17;99860.48;106775;1267;60552;-38
2024/03/21 05:35:35;;;;;;;13.10;8.00;;;;;;;4.20;83.83;99866.06;106828;1268;60360;-38
2024/03/21 05:38:03;;;;;;;12.80;7.80;;;;;;;4.24;84.12;99864.20;106793;1269;72559;-38
2024/03/21 05:40:31;;;;;;;17.50;8.20;;;;;;;4.27;84.08;99865.41;106820;1267;66604;-38
2024/03/21 05:42:58;;;;;;;17.10;8.90;;;;;;;4.27;84.00;99868.58;106779;1268;71572;-38
2024/03/21 05:45:27;;;;;;;16.90;8.10;;;;;;;4.30;83.65;99872.96;106758;1263;60876;-38
2024/03/21 05:47:54;;;;;;;14.90;8.40;;;;;;;4.35;83.26;99873.96;106725;1264;60306;-37
2024/03/21 05:50:22;;;;;;;17.60;8.80;;;;;;;4.40;83.04;99874.23;106809;1264;73816;-37
2024/03/21 05:52:49;;;;;;;15.30;8.30;;;;;;;4.41;83.07;99875.42;106732;1264;67634;-37
2024/03/21 05:55:16;;;;;;;15.30;9.00;;;;;;;4.38;82.86;99877.92;106824;1269;72747;-37
2024/03/21 05:57:44;;;;;;;16.10;8.40;;;;;;;4.33;83.03;99879.80;106790;1267;60538;-38
2024/03/21 06:00:16;;;;;;;19.20;8.10;;;;;;;4.32;82.82;99882.84;106851;1268;59243;-37
2024/03/21 06:02:43;;;;;;;17.80;8.10;;;;;;;4.38;82.81;99883.94;106963;1262;72633;-37
2024/03/21 06:05:11;;;;;;;12.10;7.90;;;;;;;4.44;82.50;99888.69;107020;1261;68124;-37
2024/03/21 06:07:38;;;;;;;13.30;8.60;;;;;;;4.43;82.43;99891.64;107018;1266;73152;-37
2024/03/21 06:10:08;;;;;;;18.50;9.10;;;;;;;4.44;82.54;99894.59;107016;1260;59598;-37
2024/03/21 06:12:35;;;;;;;15.80;8.50;;;;;;;4.46;82.65;99898.98;107047;1261;60597;-37
2024/03/21 06:15:03;;;;;;;15.50;8.50;;;;;;;4.48;82.45;99900.61;106979;1261;73537;-38
2024/03/21 06:17:31;;;;;;;12.10;7.50;;;;;;;4.56;82.22;99901.80;107254;1256;66629;-37
2024/03/21 06:19:59;;;;;;;16.90;8.00;;;;;;;4.65;82.06;99903.30;107340;1258;71551;-37
2024/03/21 06:22:27;;;;;;;18.00;8.60;;;;;;;4.71;82.08;99898.73;107210;1258;60444;-37
2024/03/21 06:24:54;;;;;;;19.60;9.30;;;;;;;4.75;82.00;99899.08;107274;1257;60542;-37
2024/03/21 06:27:21;;;;;;;23.60;10.90;;;;;;;4.78;81.90;99897.59;106475;1258;1003789;-38
2024/03/21 06:29:49;;;;;;;18.40;9.20;;;;;;;4.82;81.45;99896.05;107264;1260;66428;-38
2024/03/21 06:32:16;;;;;;;15.90;9.50;;;;;;;4.90;81.23;99897.08;107142;1261;71693;-37
2024/03/21 06:34:44;;;;;;;14.30;8.30;;;;;;;5.03;81.41;99895.24;107577;1254;60170;-37
2024/03/21 06:37:13;;;;;;;13.80;9.10;;;;;;;5.11;81.48;99900.65;107618;1254;60383;-37
2024/03/21 06:39:40;;;;;;;21.90;9.90;;;;;;;5.19;81.49;99900.38;107638;1255;72663;-38
2024/03/21 06:42:08;;;;;;;17.20;10.10;;;;;;;5.25;81.11;99904.52;107594;1254;67930;-37
2024/03/21 06:44:36;;;;;;;17.60;8.60;;;;;;;5.28;80.89;99905.56;107605;1254;72009;-37
2024/03/21 06:47:05;;;;;;;16.20;9.10;;;;;;;5.40;80.36;99903.04;107628;1254;60561;-38
2024/03/21 06:49:32;;;;;;;18.40;9.60;;;;;;;5.54;80.12;99900.59;107607;1252;60434;-38
2024/03/21 06:52:00;;;;;;;17.30;9.00;;;;;;;5.60;80.00;99896.40;107616;1254;73854;-38
2024/03/21 06:54:27;;;;;;;19.70;11.00;;;;;;;5.63;79.29;99898.06;107593;1254;66977;-38
2024/03/21 06:56:55;;;;;;;16.30;10.40;;;;;;;5.65;78.99;99902.95;107569;1257;72777;-38
2024/03/21 06:59:22;;;;;;;17.60;10.10;;;;;;;5.71;78.88;99903.75;107647;1254;60916;-38
2024/03/21 07:01:51;;;;;;;15.60;9.40;;;;;;;5.79;78.37;99906.59;107581;1253;60463;-38
2024/03/21 07:04:18;;;;;;;17.30;9.50;;;;;;;5.88;78.13;99903.90;107584;1252;74185;-38
2024/03/21 07:06:46;;;;;;;17.60;9.90;;;;;;;5.95;78.18;99903.28;107547;1255;67778;-38
2024/03/21 07:09:13;;;;;;;15.60;9.70;;;;;;;5.99;77.91;99902.53;107495;1254;71470;-38
2024/03/21 07:11:41;;;;;;;18.00;10.20;;;;;;;6.03;77.55;99904.05;107541;1254;60393;-38
2024/03/21 07:14:09;;;;;;;17.70;10.30;;;;;;;6.10;77.53;99906.11;107594;1252;60406;-38
2024/03/21 07:16:37;;;;;;;15.30;8.80;;;;;;;6.23;77.13;99906.46;107568;1253;72731;-38
2024/03/21 07:19:05;;;;;;;16.00;9.70;;;;;;;6.41;77.19;99911.34;107701;1254;66901;-38
2024/03/21 07:21:32;;;;;;;15.80;10.90;;;;;;;6.61;77.19;99909.67;107568;1254;72796;-38
2024/03/21 07:24:00;;;;;;;18.80;10.00;;;;;;;6.73;75.98;99912.75;107617;1257;60456;-38
2024/03/21 07:26:29;;;;;;;18.80;10.90;;;;;;;6.83;75.77;99908.87;107659;1257;60439;-38
2024/03/21 07:28:56;;;;;;;18.00;10.60;;;;;;;6.93;75.33;99911.77;107602;1254;74213;-38
2024/03/21 07:31:24;;;;;;;15.60;9.50;;;;;;;7.02;74.95;99913.82;107603;1254;69005;-38
2024/03/21 07:33:51;;;;;;;15.70;8.40;;;;;;;7.17;74.58;99910.25;107624;1255;71927;-38
2024/03/21 07:36:19;;;;;;;15.30;9.20;;;;;;;7.34;74.37;99904.44;107629;1254;60497;-38
2024/03/21 07:38:46;;;;;;;16.60;9.80;;;;;;;7.51;73.66;99905.22;107619;1257;60128;-38
2024/03/21 07:41:14;;;;;;;18.60;9.80;;;;;;;7.62;73.35;99905.98;107599;1253;73953;-38
2024/03/21 07:43:41;;;;;;;17.20;9.70;;;;;;;7.73;73.12;99907.47;107631;1254;68594;-38
2024/03/21 07:46:09;;;;;;;17.60;10.00;;;;;;;7.85;72.82;99911.65;107651;1255;73036;-38
2024/03/21 07:48:36;;;;;;;16.20;10.60;;;;;;;8.00;73.09;99916.16;107587;1253;61948;-38
2024/03/21 07:51:04;;;;;;;14.20;9.30;;;;;;;8.17;72.82;99917.65;107564;1254;61221;-38
2024/03/21 07:53:31;;;;;;;19.60;9.60;;;;;;;8.40;72.11;99919.51;107606;1254;73687;-38
2024/03/21 07:55:59;;;;;;;17.50;10.60;;;;;;;8.60;71.58;99917.16;107599;1254;67821;-38
2024/03/21 07:58:26;;;;;;;17.20;9.60;;;;;;;8.73;70.87;99917.55;107621;1254;71498;-38
2024/03/21 08:00:54;;;;;;;14.40;9.70;;;;;;;8.87;70.87;99920.10;107621;1254;62173;-39
2024/03/21 08:03:21;;;;;;;19.10;10.00;;;;;;;9.01;70.39;99924.38;107637;1257;61065;-38
2024/03/21 08:05:49;;;;;;;18.40;11.20;;;;;;;9.14;70.19;99921.59;107649;1253;75081;-38
2024/03/21 08:08:17;;;;;;;16.10;10.00;;;;;;;9.29;69.54;99920.69;107623;1257;70241;-38
2024/03/21 08:10:44;;;;;;;15.90;9.60;;;;;;;9.41;68.87;99921.61;107647;1253;74784;-38
2024/03/21 08:13:12;;;;;;;16.80;10.70;;;;;;;9.53;68.07;99919.59;106866;1254;1002851;-38
2024/03/21 08:15:39;;;;;;;18.00;9.60;;;;;;;9.65;67.52;99922.99;107593;1252;62197;-38
2024/03/21 08:18:07;;;;;;;17.30;9.90;;;;;;;9.77;66.44;99922.76;107569;1254;76875;-39
2024/03/21 08:20:35;;;;;;;17.10;10.10;;;;;;;9.87;66.03;99925.47;107592;1255;68908;-38
2024/03/21 08:23:03;;;;;;;19.20;10.10;;;;;;;9.98;63.36;99922.45;107662;1254;73618;-38
2024/03/21 08:25:34;;;;;;;19.90;9.90;;;;;;;9.99;62.94;99918.41;107607;1254;61189;-38
2024/03/21 08:28:02;;;;;;;18.80;9.90;;;;;;;10.02;62.72;99921.91;107650;1254;61304;-39
2024/03/21 08:30:29;;;;;;;16.50;9.40;;;;;;;10.06;61.26;99921.93;107578;1253;74765;-39
2024/03/21 08:32:57;;;;;;;19.50;9.70;;;;;;;10.08;61.80;99923.91;107608;1254;70062;-39
2024/03/21 08:35:25;;;;;;;20.70;9.90;;;;;;;10.14;62.05;99923.95;107594;1257;74874;-39
2024/03/21 08:37:52;;;;;;;21.40;9.90;;;;;;;10.23;61.84;99921.23;107599;1257;61088;-39
2024/03/21 08:40:20;;;;;;;17.70;10.00;;;;;;;10.35;61.98;99925.13;107599;1254;61186;-39
2024/03/21 08:42:47;;;;;;;14.50;9.20;;;;;;;10.51;61.58;99922.35;107530;1254;74649;-39
2024/03/21 08:45:17;;;;;;;20.10;9.30;;;;;;;10.69;61.56;99926.47;107588;1254;67407;-39
2024/03/21 08:47:44;;;;;;;17.20;9.60;;;;;;;10.86;60.31;99928.42;107552;1253;71962;-39
2024/03/21 08:50:12;;;;;;;17.10;9.10;;;;;;;11.01;58.98;99928.18;107437;1254;61219;-39
2024/03/21 08:52:39;;;;;;;20.80;9.60;;;;;;;11.11;58.58;99927.13;107451;1253;62190;-39
2024/03/21 08:55:07;;;;;;;16.80;9.70;;;;;;;11.20;57.88;99925.10;107463;1254;76689;-39
2024/03/21 08:57:36;;;;;;;21.10;10.20;;;;;;;11.07;57.01;99895.70;107452;1258;68909;-39
2024/03/21 09:00:04;;;;;;;20.20;9.50;;;;;;;11.26;57.36;99919.98;107396;1254;73051;-39
2024/03/21 09:02:33;;;;;;;21.80;10.40;;;;;;;11.36;57.61;99918.14;107461;1255;62203;-37
2024/03/21 09:05:00;;;;;;;19.10;9.50;;;;;;;11.51;57.45;99918.20;107448;1253;61132;-38
2024/03/21 09:07:28;;;;;;;22.00;11.20;;;;;;;11.75;56.51;99913.66;107452;1254;76877;-38
2024/03/21 09:09:56;;;;;;;15.00;9.40;;;;;;;11.96;54.77;99915.45;107512;1254;68043;-37
2024/03/21 09:12:23;;;;;;;19.30;9.90;;;;;;;12.08;54.77;99915.49;107433;1254;71958;-39
2024/03/21 09:14:51;;;;;;;19.40;10.10;;;;;;;12.20;54.35;99911.70;107429;1254;60453;-38
2024/03/21 09:17:18;;;;;;;22.00;10.50;;;;;;;12.36;53.75;99911.17;107511;1254;60971;-39
2024/03/21 09:19:46;;;;;;;18.00;10.60;;;;;;;12.47;52.32;99914.36;107294;1253;73502;-38
2024/03/21 09:22:13;;;;;;;17.90;10.60;;;;;;;12.49;52.50;99911.05;107451;1254;66833;-38
2024/03/21 09:24:44;;;;;;;20.40;10.80;;;;;;;12.49;53.49;99910.83;107450;1254;73070;-38
2024/03/21 09:27:14;;;;;;;16.30;10.10;;;;;;;12.59;53.29;99910.64;107459;1254;61256;-38
2024/03/21 09:29:46;;;;;;;24.10;11.30;;;;;;;12.72;52.12;99909.08;107461;1254;61106;-39
2024/03/21 09:32:13;;;;;;;17.90;10.70;;;;;;;12.68;52.02;99897.27;107453;1255;73449;-38
2024/03/21 09:34:47;;;;;;;20.90;11.00;;;;;;;12.77;52.14;99903.20;107471;1253;68213;-39
2024/03/21 09:37:14;;;;;;;21.40;10.90;;;;;;;12.82;51.26;99897.63;107477;1258;71838;-39
2024/03/21 09:39:42;;;;;;;24.20;11.30;;;;;;;12.84;51.30;99900.60;107476;1254;61337;-38
2024/03/21 09:42:19;;;;;;;21.50;10.40;;;;;;;12.80;50.84;99898.20;107447;1254;60075;-38
2024/03/21 09:44:48;;;;;;;21.10;11.10;;;;;;;12.86;50.76;99893.48;107488;1253;75607;-38
2024/03/21 09:47:20;;;;;;;21.00;10.70;;;;;;;12.90;49.84;99892.55;107493;1254;70136;-38
2024/03/21 09:49:47;;;;;;;17.90;10.20;;;;;;;12.86;50.65;99893.56;107444;1259;72843;-38
2024/03/21 09:52:15;;;;;;;23.00;10.70;;;;;;;12.95;51.00;99894.90;107470;1254;61384;-38
2024/03/21 09:54:43;;;;;;;20.10;10.10;;;;;;;13.17;50.56;99892.19;107458;1253;61229;-39
2024/03/21 09:57:12;;;;;;;15.70;9.00;;;;;;;13.39;50.06;99892.48;107425;1253;74784;-39
2024/03/21 09:59:40;;;;;;;18.10;10.10;;;;;;;13.56;49.06;99888.14;107472;1258;67783;-38
2024/03/21 10:02:14;;;;;;;18.10;9.70;;;;;;;13.55;46.89;99892.58;107493;1253;75134;-38
2024/03/21 10:04:42;;;;;;;17.30;9.60;;;;;;;13.46;47.16;99893.23;107456;1253;59821;-38
2024/03/21 10:07:20;;;;;;;19.20;9.70;;;;;;;13.40;47.59;99889.77;107430;1254;61128;-38
2024/03/21 10:09:58;;;;;;;23.20;9.70;;;;;;;13.48;48.37;99892.63;107351;1253;74801;-38
2024/03/21 10:12:26;;;;;;;15.50;8.90;;;;;;;13.60;48.24;99895.61;107375;1253;67548;-38
2024/03/21 10:14:56;;;;;;;21.30;9.30;;;;;;;13.63;47.36;99896.29;107373;1254;71887;-38
2024/03/21 10:17:24;;;;;;;19.50;8.80;;;;;;;13.56;45.96;99896.64;107331;1253;61325;-38
2024/03/21 10:19:53;;;;;;;21.60;9.40;;;;;;;13.46;46.31;99893.61;107486;1259;61102;-38
2024/03/21 10:22:22;;;;;;;16.60;8.60;;;;;;;13.46;46.28;99897.11;107427;1254;75034;-38
2024/03/21 10:24:53;;;;;;;25.40;10.20;;;;;;;13.51;45.77;99896.02;107513;1258;68044;-38
2024/03/21 10:27:22;;;;;;;20.60;9.30;;;;;;;13.53;44.99;99894.65;107439;1254;74747;-38
2024/03/21 10:29:51;;;;;;;20.60;9.60;;;;;;;13.53;46.34;99894.09;107448;1254;61224;-39
2024/03/21 10:32:20;;;;;;;23.60;10.00;;;;;;;13.62;45.52;99888.79;107458;1254;61236;-39
2024/03/21 10:34:49;;;;;;;20.90;10.10;;;;;;;13.80;45.34;99889.29;107434;1253;75430;-39
2024/03/21 10:37:18;;;;;;;16.60;8.90;;;;;;;13.99;44.44;99891.42;107490;1254;66450;-39
2024/03/21 10:39:46;;;;;;;20.10;9.10;;;;;;;13.97;44.30;99885.17;107464;1253;71535;-39
2024/03/21 10:42:22;;;;;;;19.40;9.40;;;;;;;13.81;43.32;99884.94;107470;1254;60375;-39
2024/03/21 10:44:52;;;;;;;18.80;8.80;;;;;;;13.70;43.74;99883.23;107482;1253;61259;-38
2024/03/21 10:47:20;;;;;;;21.10;9.10;;;;;;;13.82;43.21;99879.58;107423;1253;75209;-39
2024/03/21 10:49:50;;;;;;;19.20;8.00;;;;;;;14.01;41.50;99877.36;107443;1253;66830;-39
2024/03/21 10:52:17;;;;;;;18.70;7.70;;;;;;;14.17;41.33;99874.68;107461;1258;72513;-39
2024/03/21 10:54:49;;;;;;;24.40;8.40;;;;;;;14.30;41.22;99875.94;107449;1254;61237;-39
2024/03/21 10:57:23;;;;;;;15.30;7.80;;;;;;;14.52;40.43;99870.67;107557;1253;61795;-39
2024/03/21 10:59:57;;;;;;;20.50;8.70;;;;;;;14.77;39.05;99869.23;107525;1258;74992;-39
2024/03/21 11:02:29;;;;;;;18.20;7.70;;;;;;;14.87;37.94;99866.36;107513;1253;67394;-39
2024/03/21 11:05:11;;;;;;;18.50;8.20;;;;;;;14.87;38.21;99870.81;107461;1254;72817;-39
2024/03/21 11:07:39;;;;;;;21.10;9.30;;;;;;;14.93;39.26;99871.65;107333;1254;61180;-39
2024/03/21 11:10:07;;;;;;;20.40;8.30;;;;;;;15.16;39.23;99870.75;107343;1253;61284;-39
2024/03/21 11:12:36;;;;;;;22.60;8.90;;;;;;;15.42;38.15;99861.20;107476;1253;72435;-39
2024/03/21 11:15:05;;;;;;;20.00;8.90;;;;;;;15.54;38.75;99866.23;107275;1253;66721;-39
2024/03/21 11:17:32;;;;;;;20.30;10.00;;;;;;;15.66;38.32;99866.87;107492;1253;74891;-39
2024/03/21 11:20:05;;;;;;;27.50;9.70;;;;;;;15.65;37.94;99859.77;107408;1254;61244;-37
2024/03/21 11:22:32;;;;;;;19.00;9.70;;;;;;;15.69;38.27;99861.34;107299;1254;60569;-38
2024/03/21 11:25:01;;;;;;;19.80;9.10;;;;;;;15.88;37.71;99859.89;107369;1257;74945;-37
2024/03/21 11:27:29;;;;;;;19.30;8.50;;;;;;;15.97;38.26;99859.16;107433;1253;66760;-38
2024/03/21 11:29:57;;;;;;;21.10;9.50;;;;;;;16.04;37.48;99853.65;107480;1253;71444;-38